Time;durP1;ratioP1;P1;durP2;ratioP2;P2;SDS_P1;SDS_P2;PMS_P1;PMS_P2;Temp;Humidity;BMP_temperature;BMP_pressure;BME280_temperature;BME280_humidity;BME280_pressure;Samples;Min_cycle;Max_cycle;Signal;HPM_P1;HPM_P2
2021/10/21 00:00:31;;;;;;;3.22;1.25;;;;;;;;;;4064686;29;20078;-61
2021/10/21 00:02:34;;;;;;;4.88;1.60;;;;;;;;;;4066963;29;21323;-61
2021/10/21 00:04:36;;;;;;;5.27;1.63;;;;;;;;;;4067149;29;20107;-61
2021/10/21 00:06:39;;;;;;;2.85;1.77;;;;;;;;;;4063858;29;20369;-60
2021/10/21 00:08:42;;;;;;;4.00;1.45;;;;;;;;;;4065469;29;20032;-60
2021/10/21 00:10:46;;;;;;;1.70;1.35;;;;;;;;;;4068623;29;20130;-61
2021/10/21 00:12:49;;;;;;;5.43;1.55;;;;;;;;;;4063842;29;20047;-52
2021/10/21 00:14:51;;;;;;;17.33;1.85;;;;;;;;;;4066205;29;20047;-53
2021/10/21 00:16:53;;;;;;;12.13;1.90;;;;;;;;;;4040975;29;20932;-56
2021/10/21 00:18:56;;;;;;;7.07;1.70;;;;;;;;;;4069930;29;20082;-56
2021/10/21 00:20:58;;;;;;;7.20;1.70;;;;;;;;;;4067551;29;20052;-52
2021/10/21 00:23:01;;;;;;;13.50;1.63;;;;;;;;;;4068580;29;20103;-56
2021/10/21 00:25:04;;;;;;;10.45;1.98;;;;;;;;;;4069969;29;20115;-59
2021/10/21 00:27:06;;;;;;;8.40;1.60;;;;;;;;;;4070033;29;20134;-64
2021/10/21 00:29:08;;;;;;;3.92;1.33;;;;;;;;;;4068587;29;20154;-57
2021/10/21 00:31:12;;;;;;;2.47;1.40;;;22.30;61.50;;;;;;4053516;29;20138;-59
2021/10/21 00:33:15;;;;;;;7.25;1.40;;;22.70;61.60;;;;;;4070772;29;20150;-57
2021/10/21 00:35:17;;;;;;;4.88;1.52;;;22.70;62.00;;;;;;4066620;29;20327;-59
2021/10/21 00:37:20;;;;;;;2.97;1.33;;;22.70;61.80;;;;;;4068024;29;20039;-60
2021/10/21 00:39:22;;;;;;;4.75;1.10;;;22.80;61.80;;;;;;4069634;29;20043;-56
2021/10/21 00:41:26;;;;;;;4.57;1.20;;;22.80;61.80;;;;;;4066659;29;20102;-62
2021/10/21 00:43:39;;;;;;;3.00;1.50;;;22.80;61.70;;;;;;4068863;29;20411;-52
2021/10/21 00:45:41;;;;;;;3.45;1.30;;;22.90;61.70;;;;;;4066160;29;20134;-57
2021/10/21 00:47:44;;;;;;;4.37;1.27;;;;;;;;;;4069987;29;20040;-56
2021/10/21 00:49:46;;;;;;;3.15;1.35;;;;;;;;;;4067962;29;21146;-56
2021/10/21 00:51:48;;;;;;;3.87;1.60;;;;;;;;;;4070985;29;20075;-52
2021/10/21 00:53:51;;;;;;;1.90;1.00;;;;;;;;;;4067003;29;20122;-55
2021/10/21 00:55:53;;;;;;;2.08;1.10;;;;;;;;;;4071228;29;20142;-55
2021/10/21 00:57:56;;;;;;;2.47;1.35;;;;;;;;;;4068058;29;20091;-58
2021/10/21 00:59:58;;;;;;;3.03;1.25;;;;;;;;;;4065528;29;20048;-59
2021/10/21 01:02:01;;;;;;;5.55;1.73;;;;;;;;;;4068541;29;20127;-65
2021/10/21 01:04:04;;;;;;;2.33;1.40;;;;;;;;;;4069833;29;20066;-60
2021/10/21 01:06:06;;;;;;;3.40;1.52;;;;;;;;;;4069363;29;20130;-51
2021/10/21 01:08:09;;;;;;;3.40;1.52;;;;;;;;;;4070933;29;20110;-56
2021/10/21 01:10:11;;;;;;;2.77;1.03;;;;;;;;;;4071212;29;20095;-60
2021/10/21 01:12:14;;;;;;;3.30;1.17;;;;;;;;;;4070891;29;20054;-59
2021/10/21 01:14:16;;;;;;;2.80;1.55;;;;;;;;;;4066588;29;20039;-60
2021/10/21 01:16:19;;;;;;;2.85;1.50;;;;;;;;;;4068302;29;20108;-59
2021/10/21 01:18:21;;;;;;;1.45;1.25;;;;;;;;;;4069133;29;20126;-59
2021/10/21 01:20:24;;;;;;;4.68;1.83;;;;;;;;;;4065744;29;20487;-60
2021/10/21 01:22:27;;;;;;;2.95;1.50;;;;;;;;;;4071894;29;20031;-59
2021/10/21 01:24:29;;;;;;;2.20;1.53;;;;;;;;;;4066049;29;20044;-52
2021/10/21 01:26:31;;;;;;;3.47;1.67;;;;;;;;;;4071766;29;20360;-55
2021/10/21 01:28:34;;;;;;;5.80;1.80;;;;;;;;;;4067361;29;20044;-55
2021/10/21 01:30:38;;;;;;;5.80;2.70;;;;;;;;;;4063701;29;20075;-54
2021/10/21 01:32:40;;;;;;;5.47;3.00;;;;;;;;;;4060235;29;20916;-51
2021/10/21 01:34:42;;;;;;;5.07;2.58;;;;;;;;;;4064375;29;20139;-58
2021/10/21 01:36:49;;;;;;;5.60;3.38;;;;;;;;;;4067279;29;20052;-53
2021/10/21 01:38:51;;;;;;;7.18;3.60;;;;;;;;;;4065387;29;20575;-61
2021/10/21 01:40:54;;;;;;;4.17;2.97;;;;;;;;;;4050969;29;20044;-59
2021/10/21 01:42:56;;;;;;;5.80;3.00;;;;;;;;;;4066043;29;20322;-57
2021/10/21 01:44:58;;;;;;;5.43;3.58;;;;;;;;;;4067068;29;20051;-56
2021/10/21 01:47:01;;;;;;;5.90;4.05;;;;;;;;;;4064991;29;20090;-60
2021/10/21 01:49:03;;;;;;;7.15;3.80;;;;;;;;;;4064137;29;20126;-58
2021/10/21 01:51:05;;;;;;;5.00;3.55;;;;;;;;;;4066504;29;20533;-59
2021/10/21 01:53:08;;;;;;;7.28;4.03;;;;;;;;;;4063499;29;20063;-60
2021/10/21 01:55:11;;;;;;;5.93;3.95;;;;;;;;;;4062930;29;20039;-56
2021/10/21 01:57:13;;;;;;;5.88;4.22;;;;;;;;;;4066781;29;20135;-59
2021/10/21 01:59:15;;;;;;;6.75;4.20;;;;;;;;;;4066238;29;20128;-60
2021/10/21 02:01:17;;;;;;;6.80;4.50;;;;;;;;;;4064716;29;20134;-55
2021/10/21 02:03:20;;;;;;;8.00;4.55;;;22.90;61.70;;;;;;4065593;29;20051;-59
2021/10/21 02:05:23;;;;;;;10.40;5.15;;;23.60;60.20;;;;;;4046627;29;20044;-57
2021/10/21 02:07:25;;;;;;;7.40;5.00;;;23.60;60.20;;;;;;4043643;29;20151;-58
2021/10/21 02:09:28;;;;;;;8.65;5.10;;;23.60;60.40;;;;;;4064206;29;20123;-59
2021/10/21 02:11:30;;;;;;;8.02;5.03;;;23.60;60.20;;;;;;4063009;29;20120;-60
2021/10/21 02:13:33;;;;;;;8.35;5.70;;;23.70;60.30;;;;;;4063616;29;20035;-63
2021/10/21 02:15:35;;;;;;;8.40;5.30;;;23.70;60.20;;;;;;4063950;29;20170;-59
2021/10/21 02:17:39;;;;;;;9.25;5.40;;;23.70;60.30;;;;;;4063456;29;20305;-55
2021/10/21 02:19:42;;;;;;;10.88;5.97;;;23.70;60.20;;;;;;4062880;29;20046;-55
2021/10/21 02:21:44;;;;;;;9.55;6.40;;;23.70;59.70;;;;;;4063611;29;20068;-54
2021/10/21 02:23:47;;;;;;;10.43;5.90;;;23.80;59.40;;;;;;4061018;29;20584;-54
2021/10/21 02:25:49;;;;;;;11.38;6.93;;;23.80;59.20;;;;;;4062212;29;20306;-54
2021/10/21 02:27:53;;;;;;;10.95;6.15;;;23.80;59.20;;;;;;4063676;29;20545;-53
2021/10/21 02:29:55;;;;;;;10.65;6.15;;;23.80;58.80;;;;;;4060744;29;20102;-59
2021/10/21 02:31:58;;;;;;;10.38;6.50;;;23.80;58.50;;;;;;4064609;29;20066;-55
2021/10/21 02:34:00;;;;;;;8.13;6.40;;;23.80;58.40;;;;;;4062524;29;20852;-50
2021/10/21 02:36:03;;;;;;;9.77;7.05;;;23.80;58.20;;;;;;4062436;29;20062;-46
2021/10/21 02:38:05;;;;;;;11.10;6.80;;;23.80;58.10;;;;;;4064646;29;20067;-55
2021/10/21 02:40:10;;;;;;;8.15;6.07;;;23.80;58.00;;;;;;4068112;29;20039;-49
2021/10/21 02:42:13;;;;;;;7.80;5.93;;;23.80;57.90;;;;;;4085902;23;20063;-72
2021/10/21 02:44:36;;;;;;;8.32;6.05;;;23.80;58.00;;;;;;4078349;28;20218;-75
2021/10/21 02:46:59;;;;;;;7.87;6.57;;;23.80;57.80;;;;;;4083321;28;20051;-73
2021/10/21 02:49:21;;;;;;;9.00;6.90;;;23.80;57.70;;;;;;4083224;28;20101;-74
2021/10/21 02:51:45;;;;;;;7.13;6.07;;;23.80;57.70;;;;;;4085267;28;20589;-74
2021/10/21 02:54:08;;;;;;;8.00;6.22;;;23.90;57.60;;;;;;4086011;28;20690;-78
2021/10/21 02:56:31;;;;;;;7.40;6.25;;;23.90;57.50;;;;;;4084786;28;20078;-73
2021/10/21 02:58:54;;;;;;;7.65;5.80;;;23.90;57.50;;;;;;4086454;28;20518;-74
2021/10/21 03:01:16;;;;;;;9.25;6.72;;;23.90;57.30;;;;;;4089103;28;20091;-73
2021/10/21 03:03:39;;;;;;;10.20;6.78;;;23.90;57.30;;;;;;4088293;28;20043;-72
2021/10/21 03:06:02;;;;;;;7.60;6.13;;;23.90;57.20;;;;;;4090993;28;20043;-72
2021/10/21 03:08:25;;;;;;;9.55;6.97;;;23.90;57.10;;;;;;4088627;28;20071;-75
2021/10/21 03:10:48;;;;;;;8.90;6.85;;;23.90;57.10;;;;;;4093818;28;20069;-74
2021/10/21 03:13:11;;;;;;;8.43;6.75;;;23.90;57.10;;;;;;4090739;28;20489;-74
2021/10/21 03:15:34;;;;;;;8.30;6.18;;;24.00;57.10;;;;;;4088236;29;20082;-75
2021/10/21 03:17:59;;;;;;;8.80;7.00;;;24.00;56.90;;;;;;4090151;28;20043;-73
2021/10/21 03:20:22;;;;;;;9.40;6.85;;;24.00;56.90;;;;;;4086402;28;20094;-73
2021/10/21 03:22:45;;;;;;;9.43;7.38;;;24.00;56.90;;;;;;4082608;29;20043;-74
2021/10/21 03:25:09;;;;;;;9.35;6.82;;;24.00;56.80;;;;;;4075795;29;20055;-73
2021/10/21 03:27:32;;;;;;;8.82;6.60;;;24.00;56.80;;;;;;4077083;28;20123;-73
2021/10/21 03:29:36;;;;;;;8.75;6.70;;;24.00;56.70;;;;;;4065907;29;20402;-73
2021/10/21 03:31:38;;;;;;;13.20;8.05;;;24.00;56.70;;;;;;4086174;23;20062;-68
2021/10/21 03:33:41;;;;;;;8.95;6.95;;;24.00;57.00;;;;;;4071035;29;20062;-70
2021/10/21 03:35:44;;;;;;;9.55;6.97;;;24.10;57.80;;;;;;4069501;29;20043;-71
2021/10/21 03:37:46;;;;;;;10.25;6.85;;;24.10;57.20;;;;;;4080126;29;20432;-70
2021/10/21 03:39:52;;;;;;;9.13;6.65;;;24.20;57.40;;;;;;4077943;29;20045;-69
2021/10/21 03:41:54;;;;;;;8.75;6.55;;;24.20;57.40;;;;;;4079034;29;20925;-70
2021/10/21 03:43:57;;;;;;;10.20;6.90;;;24.20;57.50;;;;;;4078752;29;20035;-69
2021/10/21 03:45:59;;;;;;;8.90;6.80;;;24.30;57.60;;;;;;4077133;29;20066;-69
2021/10/21 03:48:02;;;;;;;8.43;6.28;;;24.30;57.60;;;;;;4083274;28;20066;-69
2021/10/21 03:50:04;;;;;;;8.25;6.18;;;24.30;57.70;;;;;;4095434;28;20078;-70
2021/10/21 03:52:07;;;;;;;12.70;6.38;;;24.40;57.70;;;;;;4094424;28;20114;-72
2021/10/21 03:54:13;;;;;;;8.82;6.45;;;24.40;57.60;;;;;;4096045;28;20484;-71
2021/10/21 03:56:15;;;;;;;7.38;5.68;;;24.50;57.80;;;;;;4095884;28;20127;-69
2021/10/21 03:58:18;;;;;;;7.85;6.25;;;24.50;57.80;;;;;;4082093;29;20035;-70
2021/10/21 04:00:21;;;;;;;8.82;5.70;;;24.60;57.80;;;;;;4101355;28;20039;-70
2021/10/21 04:02:23;;;;;;;7.57;6.22;;;24.60;57.70;;;;;;4105215;28;20073;-71
2021/10/21 04:04:26;;;;;;;8.20;5.57;;;24.70;57.80;;;;;;4106032;28;20039;-71
2021/10/21 04:06:28;;;;;;;8.65;5.63;;;24.70;57.80;;;;;;4104436;28;20106;-71
2021/10/21 04:08:34;;;;;;;8.65;5.35;;;24.80;57.80;;;;;;4106902;28;20064;-69
2021/10/21 04:10:36;;;;;;;11.18;5.95;;;24.80;57.70;;;;;;4106481;28;20489;-71
2021/10/21 04:12:39;;;;;;;6.85;5.30;;;24.90;57.70;;;;;;4098941;28;20034;-70
2021/10/21 04:14:41;;;;;;;7.75;5.72;;;25.00;57.70;;;;;;4094657;28;20050;-70
2021/10/21 04:16:44;;;;;;;7.25;5.10;;;25.00;57.50;;;;;;4093893;28;20070;-71
2021/10/21 04:18:46;;;;;;;7.38;5.32;;;25.10;57.40;;;;;;4092720;28;20071;-69
2021/10/21 04:20:49;;;;;;;7.13;5.53;;;25.10;57.40;;;;;;4091557;28;20098;-70
2021/10/21 04:22:52;;;;;;;8.52;5.43;;;25.20;57.30;;;;;;4093306;28;20098;-69
2021/10/21 04:24:54;;;;;;;7.55;5.53;;;25.30;57.20;;;;;;4095116;28;20092;-69
2021/10/21 04:26:57;;;;;;;8.30;5.32;;;25.30;57.60;;;;;;4093695;28;21030;-67
2021/10/21 04:28:59;;;;;;;7.43;5.10;;;25.40;57.00;;;;;;4093003;28;20463;-69
2021/10/21 04:31:02;;;;;;;8.65;5.00;;;25.40;56.90;;;;;;4092575;28;20122;-68
2021/10/21 04:33:04;;;;;;;7.43;5.07;;;25.50;56.80;;;;;;4094090;28;20089;-69
2021/10/21 04:35:08;;;;;;;8.23;5.07;;;25.50;56.80;;;;;;4089272;28;20086;-69
2021/10/21 04:37:11;;;;;;;7.88;4.85;;;25.60;56.80;;;;;;4094139;28;20075;-68
2021/10/21 04:39:13;;;;;;;8.27;5.20;;;25.70;56.70;;;;;;4091370;28;20050;-68
2021/10/21 04:41:16;;;;;;;8.05;4.82;;;25.70;56.50;;;;;;4095067;28;20038;-69
2021/10/21 04:43:18;;;;;;;10.38;5.13;;;25.80;56.50;;;;;;4093801;28;20454;-70
2021/10/21 04:45:21;;;;;;;8.82;4.72;;;25.80;56.30;;;;;;4092176;28;20046;-69
2021/10/21 04:47:24;;;;;;;7.57;4.90;;;25.90;56.20;;;;;;4089590;28;20623;-68
2021/10/21 04:49:27;;;;;;;6.95;4.38;;;26.00;56.00;;;;;;4075878;29;20104;-70
2021/10/21 04:51:29;;;;;;;5.80;4.60;;;26.00;55.90;;;;;;4094011;28;20039;-70
2021/10/21 04:53:32;;;;;;;5.55;4.22;;;26.10;55.80;;;;;;4091922;28;20077;-71
2021/10/21 04:55:36;;;;;;;6.80;4.45;;;26.10;55.90;;;;;;4093425;28;20059;-70
2021/10/21 04:57:38;;;;;;;5.68;3.90;;;26.20;55.00;;;;;;4094605;28;20035;-68
2021/10/21 04:59:41;;;;;;;12.98;4.53;;;26.20;54.20;;;;;;4094640;28;20046;-69
2021/10/21 05:01:44;;;;;;;6.88;3.60;;;26.20;53.60;;;;;;4092655;28;20039;-69
2021/10/21 05:03:48;;;;;;;5.85;3.55;;;26.30;53.50;;;;;;4093769;28;20042;-70
2021/10/21 05:05:50;;;;;;;5.97;3.58;;;26.30;53.70;;;;;;4095296;28;20043;-68
2021/10/21 05:07:53;;;;;;;6.70;3.58;;;26.30;53.00;;;;;;4094784;28;20448;-68
2021/10/21 05:12:27;;;;;;;6.03;3.60;;;26.40;52.80;;;;;;4189373;27;20553;-68
2021/10/21 05:14:30;;;;;;;7.80;2.72;;;26.40;53.40;;;;;;4188077;28;20037;-63
2021/10/21 05:16:32;;;;;;;6.68;2.55;;;26.50;53.60;;;;;;4187524;28;20177;-66
2021/10/21 05:18:37;;;;;;;7.95;2.30;;;26.60;53.80;;;;;;4187438;28;20067;-68
2021/10/21 05:20:41;;;;;;;4.95;2.00;;;26.60;53.80;;;;;;4188471;28;20543;-64
2021/10/21 05:22:42;;;;;;;;;;;26.60;54.00;;;;;;4189192;28;20037;-63
2021/10/21 05:24:46;;;;;;;4.10;1.67;;;26.60;54.10;;;;;;4180009;28;19916;-63
2021/10/21 05:26:49;;;;;;;1.67;1.20;;;26.60;54.10;;;;;;4185384;28;20054;-62
2021/10/21 05:28:51;;;;;;;4.95;1.52;;;26.60;54.10;;;;;;4185225;28;20932;-64
2021/10/21 05:30:54;;;;;;;1.80;1.20;;;26.60;54.10;;;;;;4183703;28;20108;-60
2021/10/21 05:32:56;;;;;;;2.05;1.00;;;26.60;54.10;;;;;;4172170;28;20494;-64
2021/10/21 05:34:59;;;;;;;2.22;0.95;;;26.70;54.10;;;;;;4172079;28;20040;-63
2021/10/21 05:37:02;;;;;;;2.45;1.10;;;26.70;54.10;;;;;;4173733;28;20046;-63
2021/10/21 05:39:04;;;;;;;;;;;26.70;54.00;;;;;;4173495;28;20166;-62
2021/10/21 05:41:07;;;;;;;1.05;0.93;;;26.80;54.10;;;;;;4173339;28;19913;-63
2021/10/21 05:43:10;;;;;;;2.08;0.88;;;26.80;54.00;;;;;;4173036;28;20033;-64
2021/10/21 05:45:11;;;;;;;;;;;26.80;54.00;;;;;;4174245;28;20067;-61
2021/10/21 05:47:15;;;;;;;2.40;0.80;;;26.90;54.20;;;;;;4173865;28;19935;-64
2021/10/21 05:49:18;;;;;;;0.98;0.63;;;26.90;54.10;;;;;;4174360;28;20032;-68
2021/10/21 05:51:21;;;;;;;1.98;0.63;;;27.00;54.00;;;;;;4174452;28;20597;-67
2021/10/21 05:53:24;;;;;;;1.65;0.57;;;27.00;54.00;;;;;;4172042;28;20064;-64
2021/10/21 05:55:26;;;;;;;0.40;0.40;;;27.10;54.00;;;;;;4172533;28;20117;-65
2021/10/21 05:57:29;;;;;;;1.35;0.50;;;27.10;53.90;;;;;;4175170;28;20033;-67
2021/10/21 05:59:32;;;;;;;0.70;0.50;;;27.20;53.90;;;;;;4178226;28;20037;-65
2021/10/21 06:01:34;;;;;;;0.40;0.40;;;27.20;53.80;;;;;;4176564;28;20599;-65
2021/10/21 06:03:38;;;;;;;0.40;0.40;;;27.20;53.70;;;;;;4178304;28;21452;-63
2021/10/21 06:05:40;;;;;;;1.30;0.40;;;27.30;53.60;;;;;;4179830;28;20032;-63
2021/10/21 06:07:43;;;;;;;1.92;0.40;;;27.30;53.50;;;;;;4177295;28;20105;-64
2021/10/21 06:09:49;;;;;;;1.17;0.60;;;27.40;53.50;;;;;;4178912;28;20028;-64
2021/10/21 06:11:52;;;;;;;0.40;0.40;;;27.40;53.40;;;;;;4179859;28;20049;-61
2021/10/21 06:13:55;;;;;;;0.60;0.40;;;27.40;53.40;;;;;;4177824;28;20040;-61
2021/10/21 06:15:57;;;;;;;0.88;0.63;;;27.50;54.00;;;;;;4177645;28;20411;-62
2021/10/21 06:18:03;;;;;;;1.33;0.80;;;27.50;53.90;;;;;;4176039;28;20041;-62
2021/10/21 06:20:10;;;;;;;1.40;0.70;;;27.50;53.20;;;;;;4177066;28;20045;-61
2021/10/21 06:22:18;;;;;;;1.95;0.80;;;27.60;53.30;;;;;;4177426;28;20518;-62
2021/10/21 06:24:24;;;;;;;1.25;0.80;;;27.60;53.20;;;;;;4169772;28;20051;-63
2021/10/21 06:26:27;;;;;;;2.03;1.02;;;27.60;53.20;;;;;;4175551;28;20088;-63
2021/10/21 06:28:29;;;;;;;;;;;27.60;53.10;;;;;;4176486;28;20029;-62
2021/10/21 06:30:31;;;;;;;0.93;0.77;;;27.60;53.10;;;;;;4173204;28;19913;-62
2021/10/21 06:32:40;;;;;;;1.65;1.00;;;27.60;53.00;;;;;;4172596;28;20033;-61
2021/10/21 06:34:43;;;;;;;1.02;0.68;;;27.60;52.90;;;;;;4173068;28;20048;-61
2021/10/21 06:36:47;;;;;;;1.25;1.00;;;27.60;52.70;;;;;;4167272;28;20053;-61
2021/10/21 06:38:49;;;;;;;0.93;0.70;;;27.60;52.60;;;;;;4166127;28;20380;-60
2021/10/21 06:40:52;;;;;;;1.00;0.70;;;27.60;52.50;;;;;;4166329;28;20029;-62
2021/10/21 06:42:54;;;;;;;0.70;0.52;;;27.60;52.50;;;;;;4164902;28;20507;-61
2021/10/21 06:44:57;;;;;;;1.90;0.73;;;27.60;52.50;;;;;;4164571;28;20043;-62
2021/10/21 06:46:59;;;;;;;0.55;0.55;;;27.60;52.40;;;;;;4164656;28;20036;-62
2021/10/21 06:49:02;;;;;;;1.35;0.60;;;27.50;52.40;;;;;;4162335;28;20041;-61
2021/10/21 06:51:05;;;;;;;1.13;0.60;;;27.50;52.30;;;;;;4157627;28;20067;-62
2021/10/21 06:53:10;;;;;;;1.85;0.63;;;27.50;52.40;;;;;;4155366;28;20037;-61
2021/10/21 06:55:14;;;;;;;0.57;0.50;;;27.50;52.30;;;;;;4155539;28;20037;-62
2021/10/21 06:57:18;;;;;;;2.03;0.70;;;27.40;52.30;;;;;;4158786;28;20578;-65
2021/10/21 06:59:21;;;;;;;0.60;0.60;;;27.40;52.30;;;;;;4159305;28;20236;-62
2021/10/21 07:01:23;;;;;;;0.40;0.35;;;27.40;52.30;;;;;;4159418;28;20045;-62
2021/10/21 07:03:26;;;;;;;1.05;0.40;;;27.40;52.20;;;;;;4162878;28;20040;-64
2021/10/21 07:05:32;;;;;;;0.30;0.30;;;27.40;52.20;;;;;;4159828;28;20087;-64
2021/10/21 07:07:37;;;;;;;0.30;0.30;;;27.40;52.30;;;;;;4161197;28;20072;-62
2021/10/21 07:09:40;;;;;;;0.80;0.60;;;27.40;52.30;;;;;;4159645;28;20051;-60
2021/10/21 07:11:42;;;;;;;3.70;0.70;;;27.40;52.30;;;;;;4161541;28;20064;-64
2021/10/21 07:13:45;;;;;;;0.40;0.40;;;27.40;52.30;;;;;;4157572;28;20048;-62
2021/10/21 07:15:47;;;;;;;4.63;0.88;;;27.30;52.40;;;;;;4161425;28;20041;-64
2021/10/21 07:17:50;;;;;;;3.28;0.73;;;27.30;52.40;;;;;;4158430;28;20033;-66
2021/10/21 07:19:52;;;;;;;0.50;0.50;;;27.30;52.70;;;;;;4160389;28;20088;-63
2021/10/21 07:21:55;;;;;;;1.55;0.50;;;27.30;52.90;;;;;;4161783;28;20037;-63
2021/10/21 07:23:57;;;;;;;0.60;0.50;;;27.30;52.90;;;;;;4161567;28;20041;-57
2021/10/21 07:26:00;;;;;;;6.05;0.80;;;27.20;52.60;;;;;;4161004;28;20056;-63
2021/10/21 07:28:03;;;;;;;2.38;0.88;;;27.20;52.90;;;;;;4161892;28;20132;-62
2021/10/21 07:30:09;;;;;;;2.13;0.88;;;27.20;52.00;;;;;;4160628;28;20113;-65
2021/10/21 07:32:11;;;;;;;2.42;0.70;;;27.20;52.10;;;;;;4160814;28;20063;-65
2021/10/21 07:34:14;;;;;;;1.73;0.55;;;27.10;52.20;;;;;;4158641;28;20060;-62
2021/10/21 07:36:19;;;;;;;2.00;0.77;;;27.20;52.70;;;;;;4161434;28;20032;-63
2021/10/21 07:38:21;;;;;;;2.95;0.60;;;27.20;52.80;;;;;;4162506;28;20082;-65
2021/10/21 07:40:24;;;;;;;1.10;0.47;;;27.10;52.80;;;;;;4161214;28;20516;-69
2021/10/21 07:42:29;;;;;;;2.85;0.50;;;27.10;53.10;;;;;;4162608;28;20051;-69
2021/10/21 07:44:37;;;;;;;0.82;0.47;;;27.10;53.30;;;;;;4162785;28;20033;-65
2021/10/21 07:46:41;;;;;;;3.25;0.60;;;27.10;53.30;;;;;;4161264;28;20160;-69
2021/10/21 07:48:44;;;;;;;1.00;0.50;;;27.10;53.50;;;;;;4161769;28;20060;-69
2021/10/21 07:50:47;;;;;;;4.22;0.43;;;27.00;53.50;;;;;;4161310;28;20041;-67
2021/10/21 07:52:49;;;;;;;1.25;0.40;;;27.10;53.70;;;;;;4161282;28;20730;-66
2021/10/21 07:54:52;;;;;;;8.07;0.77;;;27.00;53.60;;;;;;4162075;28;20045;-63
2021/10/21 07:56:55;;;;;;;3.45;0.50;;;27.00;53.70;;;;;;4159934;28;20814;-64
2021/10/21 07:58:58;;;;;;;0.93;0.50;;;27.00;53.90;;;;;;4162331;28;20099;-68
2021/10/21 08:01:03;;;;;;;0.77;0.47;;;27.00;54.00;;;;;;4160645;28;20037;-62
2021/10/21 08:03:08;;;;;;;1.10;0.65;;;27.00;54.00;;;;;;4161264;28;20037;-62
2021/10/21 08:05:11;;;;;;;1.58;0.65;;;27.00;54.00;;;;;;4162604;28;20033;-63
2021/10/21 08:07:14;;;;;;;0.75;0.40;;;27.00;54.00;;;;;;4157123;28;20103;-65
2021/10/21 08:09:20;;;;;;;1.05;0.40;;;26.90;53.90;;;;;;4155709;28;20059;-62
2021/10/21 08:11:22;;;;;;;1.45;0.60;;;26.90;54.70;;;;;;4155272;28;20106;-54
2021/10/21 08:13:29;;;;;;;0.47;0.47;;;27.00;54.20;;;;;;4158658;28;20048;-60
2021/10/21 08:15:32;;;;;;;1.17;0.73;;;26.90;53.70;;;;;;4158908;28;20462;-62
2021/10/21 08:17:35;;;;;;;2.78;0.80;;;26.90;52.50;;;;;;4158997;28;20079;-60
2021/10/21 08:19:37;;;;;;;1.40;0.65;;;26.80;52.20;;;;;;4154371;28;20037;-60
2021/10/21 08:21:40;;;;;;;2.00;0.70;;;26.90;51.90;;;;;;4159164;28;20052;-60
2021/10/21 08:23:43;;;;;;;1.23;0.45;;;26.80;52.50;;;;;;4157937;28;20036;-60
2021/10/21 08:25:46;;;;;;;1.02;0.52;;;26.80;52.00;;;;;;4159771;28;20037;-60
2021/10/21 08:27:48;;;;;;;2.15;0.82;;;26.80;52.20;;;;;;4158097;28;20119;-59
2021/10/21 08:29:54;;;;;;;1.10;0.70;;;26.80;51.90;;;;;;4156437;28;20033;-61
2021/10/21 08:32:02;;;;;;;1.58;0.80;;;26.70;51.80;;;;;;4157908;28;20049;-59
2021/10/21 08:34:05;;;;;;;1.08;0.70;;;26.70;52.10;;;;;;4156982;28;20041;-60
2021/10/21 08:36:12;;;;;;;2.17;0.65;;;26.70;52.50;;;;;;4157110;28;20040;-60
2021/10/21 08:38:14;;;;;;;1.95;0.57;;;26.70;52.60;;;;;;4158024;28;20416;-61
2021/10/21 08:40:17;;;;;;;0.55;0.40;;;26.70;52.80;;;;;;4153599;28;20144;-60
2021/10/21 08:42:20;;;;;;;0.40;0.38;;;26.70;53.00;;;;;;4157387;28;20159;-59
2021/10/21 08:44:23;;;;;;;0.85;0.50;;;26.70;53.10;;;;;;4157369;28;20037;-59
2021/10/21 08:46:27;;;;;;;0.43;0.43;;;26.70;53.20;;;;;;4157861;28;20044;-59
2021/10/21 08:48:35;;;;;;;0.50;0.50;;;26.70;53.30;;;;;;4158650;28;20488;-59
2021/10/21 08:50:39;;;;;;;0.43;0.43;;;26.70;53.40;;;;;;4158116;28;20146;-58
2021/10/21 08:52:43;;;;;;;1.85;0.50;;;26.70;53.40;;;;;;4157892;28;20041;-58
2021/10/21 08:54:46;;;;;;;0.98;0.40;;;26.70;53.40;;;;;;4159192;28;20049;-60
2021/10/21 08:56:48;;;;;;;0.40;0.38;;;26.70;53.60;;;;;;4157289;28;20241;-60
2021/10/21 08:58:54;;;;;;;0.40;0.40;;;26.70;53.60;;;;;;4156711;28;20037;-61
2021/10/21 09:01:02;;;;;;;0.35;0.35;;;26.70;53.70;;;;;;4158831;28;20120;-61
2021/10/21 09:03:07;;;;;;;1.00;0.50;;;26.70;53.70;;;;;;4156625;28;20037;-62
2021/10/21 09:09:53;;;;;;;0.45;0.30;;;26.70;53.70;;;;;;4157098;28;20656;-60
2021/10/21 09:12:10;;;;;;;0.68;0.40;;;26.70;53.70;;;;;;4155022;28;20049;-59
2021/10/21 09:14:15;;;;;;;0.90;0.32;;;26.70;53.70;;;;;;4155981;28;20053;-59
2021/10/21 09:16:21;;;;;;;0.50;0.40;;;26.70;53.70;;;;;;4156729;28;20702;-58
2021/10/21 09:18:44;;;;;;;0.30;0.30;;;26.70;53.80;;;;;;4156949;28;20180;-59
2021/10/21 09:20:47;;;;;;;;;;;26.70;53.80;;;;;;4158313;28;20029;-55
2021/10/21 09:22:58;;;;;;;1.55;0.50;;;26.80;54.00;;;;;;4157372;28;20012;-57
2021/10/21 09:25:10;;;;;;;0.45;0.45;;;26.70;53.90;;;;;;4158492;28;20483;-59
2021/10/21 09:27:24;;;;;;;0.35;0.28;;;26.70;53.90;;;;;;4158366;28;20097;-57
2021/10/21 09:29:26;;;;;;;0.45;0.38;;;26.80;53.90;;;;;;4159304;28;20116;-57
2021/10/21 09:31:31;;;;;;;0.60;0.38;;;26.80;53.90;;;;;;4154593;28;20037;-58
2021/10/21 09:33:56;;;;;;;0.95;0.43;;;26.80;53.90;;;;;;4158100;28;20128;-59
2021/10/21 09:36:01;;;;;;;0.38;0.30;;;26.70;54.00;;;;;;4158146;28;20160;-58
2021/10/21 09:38:04;;;;;;;0.45;0.40;;;26.70;54.00;;;;;;4158354;28;20411;-59
2021/10/21 09:40:16;;;;;;;0.75;0.40;;;26.80;54.10;;;;;;4158754;28;20037;-57
2021/10/21 09:42:23;;;;;;;1.52;0.40;;;26.80;54.20;;;;;;4156960;28;20028;-60
2021/10/21 09:44:27;;;;;;;0.30;0.30;;;26.80;54.10;;;;;;4156687;28;20038;-60
2021/10/21 09:46:43;;;;;;;1.20;0.40;;;26.80;54.10;;;;;;4158397;28;20595;-62
2021/10/21 09:48:45;;;;;;;0.65;0.40;;;26.80;54.20;;;;;;4159385;28;20041;-60
2021/10/21 09:50:49;;;;;;;1.27;0.40;;;26.80;54.10;;;;;;4156293;28;20040;-59
2021/10/21 09:53:06;;;;;;;0.30;0.30;;;26.80;54.10;;;;;;4158527;28;20048;-59
2021/10/21 09:55:12;;;;;;;0.40;0.40;;;26.80;54.20;;;;;;4157455;28;20148;-59
2021/10/21 09:57:17;;;;;;;0.40;0.40;;;26.80;54.10;;;;;;4157694;28;20036;-59
2021/10/21 09:59:42;;;;;;;1.02;0.50;;;26.80;54.10;;;;;;4159854;28;20649;-57
2021/10/21 10:01:44;;;;;;;0.45;0.40;;;26.80;54.10;;;;;;4162634;28;20034;-57
2021/10/21 10:03:50;;;;;;;0.40;0.40;;;26.80;54.10;;;;;;4164384;28;20045;-58
2021/10/21 10:05:57;;;;;;;0.60;0.40;;;26.80;54.10;;;;;;4163862;28;20036;-58
2021/10/21 10:08:00;;;;;;;0.30;0.30;;;26.80;54.10;;;;;;4164021;28;20443;-59
2021/10/21 10:10:04;;;;;;;0.40;0.40;;;26.80;54.10;;;;;;4161562;28;20041;-59
2021/10/21 10:12:08;;;;;;;0.63;0.50;;;26.80;54.10;;;;;;4163996;28;20519;-57
2021/10/21 10:14:11;;;;;;;0.80;0.40;;;26.80;54.10;;;;;;4162622;28;20120;-59
2021/10/21 10:16:14;;;;;;;0.70;0.50;;;26.80;54.10;;;;;;4163014;28;20807;-60
2021/10/21 10:18:24;;;;;;;0.43;0.30;;;26.80;54.10;;;;;;4163536;28;20037;-60
2021/10/21 10:20:32;;;;;;;0.30;0.30;;;26.80;54.10;;;;;;4161857;28;20094;-58
2021/10/21 10:22:40;;;;;;;0.40;0.40;;;26.80;54.10;;;;;;4161717;28;20032;-59
2021/10/21 10:24:43;;;;;;;0.30;0.30;;;26.80;54.10;;;;;;4163588;28;20041;-60
2021/10/21 10:26:57;;;;;;;0.40;0.40;;;26.70;54.10;;;;;;4163406;28;20033;-60
2021/10/21 10:29:00;;;;;;;0.55;0.43;;;26.80;54.10;;;;;;4163036;28;20124;-60
2021/10/21 10:31:03;;;;;;;0.30;0.30;;;26.70;54.00;;;;;;4164672;28;20037;-60
2021/10/21 10:33:06;;;;;;;0.40;0.40;;;26.80;54.10;;;;;;4164164;28;20036;-58
2021/10/21 10:35:31;;;;;;;3.45;0.70;;;26.80;54.10;;;;;;4163963;28;20094;-59
2021/10/21 10:37:45;;;;;;;1.10;0.60;;;26.80;53.80;;;;;;4162878;28;20034;-60
2021/10/21 10:40:02;;;;;;;1.77;0.70;;;26.80;53.50;;;;;;4164688;28;20025;-60
2021/10/21 10:42:05;;;;;;;2.67;0.70;;;26.70;52.70;;;;;;4163582;28;20040;-64
2021/10/21 10:44:08;;;;;;;2.20;0.80;;;26.70;52.80;;;;;;4163990;28;20045;-65
2021/10/21 10:46:12;;;;;;;3.45;0.73;;;26.70;53.20;;;;;;4162459;28;20036;-63
2021/10/21 10:48:16;;;;;;;1.90;0.75;;;26.70;53.20;;;;;;4164037;28;20041;-64
2021/10/21 10:50:33;;;;;;;3.17;0.60;;;26.70;53.40;;;;;;4163438;28;20124;-60
2021/10/21 10:52:53;;;;;;;1.75;0.75;;;26.70;53.40;;;;;;4163637;28;20045;-60
2021/10/21 10:55:03;;;;;;;3.42;0.65;;;26.70;53.50;;;;;;4166331;28;20044;-63
2021/10/21 10:57:07;;;;;;;2.83;0.57;;;26.60;53.50;;;;;;4165428;28;20032;-61
2021/10/21 10:59:18;;;;;;;2.10;0.40;;;26.60;53.60;;;;;;4167943;28;20113;-60
2021/10/21 11:01:30;;;;;;;0.65;0.40;;;26.60;53.60;;;;;;4168462;28;20040;-61
2021/10/21 11:03:33;;;;;;;1.95;0.40;;;26.60;53.60;;;;;;4167712;28;20138;-62
2021/10/21 11:05:47;;;;;;;0.57;0.55;;;26.60;53.80;;;;;;4169895;28;20711;-63
2021/10/21 11:07:53;;;;;;;2.00;0.50;;;26.60;53.80;;;;;;4172052;28;20495;-65
2021/10/21 11:10:17;;;;;;;1.45;0.52;;;26.60;53.80;;;;;;4168025;28;20187;-64
2021/10/21 11:12:20;;;;;;;;;;;26.60;53.80;;;;;;4170212;28;20059;-65
2021/10/21 11:14:54;;;;;;;1.30;0.50;;;26.60;53.90;;;;;;4169810;28;19959;-63